Flight Track Log - Related Links

Times and Time Zones

All times are in EDT time to prevent confusion due to time zone crossing. See the AWI3688 flight status page for this flight to view local times or setup timezone preferences in your user account.

Time Position Orientation Groundspeed Altitude Reporting Facility
EDT Latitude Longitude Course Direction KTS MPH feet Rate Location/Type
Thu 01:48:56 PM 42.6903 -73.8100 182° South 193 222 3,300  Level Boston Center
Thu 01:49:15 PM 42.6775 -73.8294 228° Southwest 223 257 4,300 2,582 Climbing Boston Center
Thu 01:50:00 PM 42.7334 -74.2065 270° West  Level FlightAware Approximate
Thu 01:50:15 PM 42.6844 -73.9258 276° West 257 296 6,700  Level Boston Center
Thu 01:51:00 PM 42.7196 -74.3274 236° Southwest  Level FlightAware Approximate
Thu 01:51:15 PM 42.7019 -74.0278 283° West 269 310 9,600  Level Boston Center
Thu 01:52:00 PM 42.6491 -74.4095 220° Southwest  Level FlightAware Approximate
Thu 01:52:15 PM 42.7172 -74.1244 282° West 276 318 12,600  Level Boston Center
Thu 01:53:00 PM 42.5776 -74.4904 223° Southwest  Level FlightAware Approximate
Thu 01:53:15 PM 42.7325 -74.2236 282° West 286 329 14,000  Level Boston Center
Thu 01:54:15 PM 42.7075 -74.3472 255° West 307 353 14,000  Level Boston Center
Thu 01:55:15 PM 42.6433 -74.4383 226° Southwest 323 372 14,000  Level Boston Center
Thu 01:56:15 PM 42.5806 -74.5633 236° Southwest 366 421 14,000 200 Level Boston Center
Thu 01:57:15 PM 42.5042 -74.6369 215° Southwest 374 430 14,400 1,000 Climbing Boston Center
Thu 01:58:15 PM 42.4150 -74.7236 216° Southwest 367 422 16,000 750 Climbing Boston Center
Thu 01:59:15 PM 42.3278 -74.8047 215° Southwest 379 436 15,900 -50 Descending Boston Center
Thu 02:00:15 PM 42.2406 -74.8856 214° Southwest 385 443 15,900 29 Level Boston Center
Thu 02:02:43 PM 42.0369 -75.0711 214° Southwest 391 450 16,000 29 Climbing New York Center
Thu 02:03:41 PM 41.9467 -75.1544 214° Southwest 396 456 16,000  Level New York Center
Thu 02:04:41 PM 41.8414 -75.2367 210° Southwest 396 456 16,000 -300 Level New York Center
Thu 02:05:41 PM 41.7447 -75.3136 211° Southwest 406 467 15,400 -793 Descending New York Center
Thu 02:06:42 PM 41.6589 -75.3825 211° Southwest 406 467 14,400 -984 Descending New York Center
Thu 02:07:43 PM 41.5642 -75.4592 211° Southwest 406 467 13,400 -1,059 Descending New York Center
Thu 02:08:41 PM 41.4675 -75.5356 211° Southwest 388 447 12,300 -706 Descending New York Center
Thu 02:09:42 PM 41.3769 -75.6094 211° Southwest 388 447 12,000 -149 Descending New York Center
Thu 02:10:42 PM 41.2931 -75.6750 210° Southwest 388 447 12,000  Level New York Center
Thu 02:11:42 PM 41.1822 -75.6892 185° South 369 425 12,000  Level New York Center
Thu 02:12:43 PM 41.0842 -75.6875 179° South 382 440 12,000  Level New York Center
Thu 02:13:43 PM 40.9758 -75.6878 180° South 388 447 12,000  Level New York Center
Thu 02:14:41 PM 40.8697 -75.6883 180° South 388 447 12,000  Level New York Center
Thu 02:15:41 PM 40.7508 -75.6881 180° South 388 447 12,000  Level New York Center
Thu 02:16:43 PM 40.6447 -75.6861 179° South 388 447 12,000  Level New York Center
Thu 02:17:41 PM 40.5592 -75.6389 157° South 373 429 12,000 -661 Level New York Center
Thu 02:18:41 PM 40.4975 -75.5172 124° Southeast 357 411 10,700 -984 Descending New York Center
Thu 02:19:43 PM 40.4383 -75.4311 132° Southeast 335 386 10,000 -443 Descending New York Center
Thu 02:20:43 PM 40.3631 -75.3825 154° Southeast 309 356 9,800 -559 Descending New York Center
Thu 02:21:41 PM 40.2956 -75.3508 160° South 290 334 8,900 -915 Descending New York Center
Thu 02:22:41 PM 40.2200 -75.3106 158° South 290 334 8,000 -984 Descending New York Center
Thu 02:23:43 PM 40.1422 -75.2700 158° South 290 334 6,900 -1,082 Descending New York Center
Thu 02:24:43 PM 40.0628 -75.2269 157° South 284 327 5,800 -1,261 Descending New York Center
Thu 02:25:42 PM 39.9936 -75.1819 154° Southeast 277 319 4,400 -1,424 Descending New York Center

Login

Don't have an account? Register now (free) for customized features, flight alerts, and more!